sensor_id;sensor_type;location;lat;lon;timestamp;pressure;altitude;pressure_sealevel;temperature;humidity
829;BME280;396;52.558;13.188;2024-02-21T00:02:06;101537.59;;;8.94;96.68
829;BME280;396;52.558;13.188;2024-02-21T00:04:33;101535.41;;;8.91;97.56
829;BME280;396;52.558;13.188;2024-02-21T00:07:00;101537.84;;;8.93;97.83
829;BME280;396;52.558;13.188;2024-02-21T00:09:27;101531.91;;;8.91;98.29
829;BME280;396;52.558;13.188;2024-02-21T00:11:53;101525.66;;;8.85;98.57
829;BME280;396;52.558;13.188;2024-02-21T00:14:21;101521.91;;;8.81;99.34
829;BME280;396;52.558;13.188;2024-02-21T00:16:48;101524.59;;;8.81;99.85
829;BME280;396;52.558;13.188;2024-02-21T00:19:15;101528.63;;;8.78;99.54
829;BME280;396;52.558;13.188;2024-02-21T00:21:41;101528.06;;;8.76;100.00
829;BME280;396;52.558;13.188;2024-02-21T00:24:08;101523.50;;;8.77;99.50
829;BME280;396;52.558;13.188;2024-02-21T00:26:34;101515.63;;;8.75;99.79
829;BME280;396;52.558;13.188;2024-02-21T00:29:01;101508.91;;;8.78;99.24
829;BME280;396;52.558;13.188;2024-02-21T00:31:29;101517.53;;;8.80;99.13
829;BME280;396;52.558;13.188;2024-02-21T00:33:56;101512.94;;;8.80;99.05
829;BME280;396;52.558;13.188;2024-02-21T00:36:23;101508.63;;;8.79;99.72
829;BME280;396;52.558;13.188;2024-02-21T00:38:49;101505.94;;;8.79;99.67
829;BME280;396;52.558;13.188;2024-02-21T00:41:16;101505.94;;;8.79;99.36
829;BME280;396;52.558;13.188;2024-02-21T00:46:13;101494.59;;;8.82;98.38
829;BME280;396;52.558;13.188;2024-02-21T00:48:40;101494.31;;;8.84;97.65
829;BME280;396;52.558;13.188;2024-02-21T00:51:07;101495.69;;;8.87;97.22
829;BME280;396;52.558;13.188;2024-02-21T00:53:34;101488.69;;;8.86;97.52
829;BME280;396;52.558;13.188;2024-02-21T00:56:04;101493.00;;;8.87;96.70
829;BME280;396;52.558;13.188;2024-02-21T00:58:30;101486.78;;;8.86;96.89
829;BME280;396;52.558;13.188;2024-02-21T01:00:57;101487.59;;;8.87;96.66
829;BME280;396;52.558;13.188;2024-02-21T01:03:24;101489.72;;;8.84;97.52
829;BME280;396;52.558;13.188;2024-02-21T01:05:52;101483.28;;;8.86;97.88
829;BME280;396;52.558;13.188;2024-02-21T01:08:18;101484.31;;;8.84;97.13
829;BME280;396;52.558;13.188;2024-02-21T01:10:45;101475.16;;;8.86;96.18
829;BME280;396;52.558;13.188;2024-02-21T01:13:11;101485.97;;;8.86;96.84
829;BME280;396;52.558;13.188;2024-02-21T01:15:38;101482.19;;;8.92;96.40
829;BME280;396;52.558;13.188;2024-02-21T01:18:05;101477.59;;;8.92;95.69
829;BME280;396;52.558;13.188;2024-02-21T01:20:31;101484.09;;;8.91;96.25
829;BME280;396;52.558;13.188;2024-02-21T01:22:59;101474.91;;;8.92;96.43
829;BME280;396;52.558;13.188;2024-02-21T01:25:26;101469.22;;;8.94;96.18
829;BME280;396;52.558;13.188;2024-02-21T01:27:53;101468.69;;;8.92;96.37
829;BME280;396;52.558;13.188;2024-02-21T01:30:19;101470.56;;;8.91;96.55
829;BME280;396;52.558;13.188;2024-02-21T01:32:46;101462.19;;;8.98;96.16
829;BME280;396;52.558;13.188;2024-02-21T01:35:13;101463.00;;;8.98;96.11
829;BME280;396;52.558;13.188;2024-02-21T01:37:39;101460.59;;;8.97;96.10
829;BME280;396;52.558;13.188;2024-02-21T01:40:09;101462.19;;;9.03;95.48
829;BME280;396;52.558;13.188;2024-02-21T01:42:38;101467.59;;;9.03;95.14
829;BME280;396;52.558;13.188;2024-02-21T01:45:05;101453.84;;;8.99;96.52
829;BME280;396;52.558;13.188;2024-02-21T01:47:32;101450.59;;;8.97;97.06
829;BME280;396;52.558;13.188;2024-02-21T01:49:59;101450.34;;;9.04;94.95
829;BME280;396;52.558;13.188;2024-02-21T01:52:27;101450.84;;;9.06;94.24
829;BME280;396;52.558;13.188;2024-02-21T01:54:54;101456.78;;;9.03;94.36
829;BME280;396;52.558;13.188;2024-02-21T01:57:24;101448.69;;;9.03;94.93
829;BME280;396;52.558;13.188;2024-02-21T01:59:51;101449.78;;;9.02;95.63
829;BME280;396;52.558;13.188;2024-02-21T02:02:18;101449.25;;;8.95;96.62
829;BME280;396;52.558;13.188;2024-02-21T02:04:45;101443.28;;;8.93;96.96
829;BME280;396;52.558;13.188;2024-02-21T02:07:12;101427.88;;;8.88;97.54
829;BME280;396;52.558;13.188;2024-02-21T02:09:39;101438.97;;;8.81;98.80
829;BME280;396;52.558;13.188;2024-02-21T02:12:06;101433.53;;;8.71;100.00
829;BME280;396;52.558;13.188;2024-02-21T02:14:34;101436.22;;;8.66;100.00
829;BME280;396;52.558;13.188;2024-02-21T02:17:01;101429.19;;;8.55;100.00
829;BME280;396;52.558;13.188;2024-02-21T02:19:27;101421.88;;;8.50;100.00
829;BME280;396;52.558;13.188;2024-02-21T02:21:59;101427.53;;;8.49;100.00
829;BME280;396;52.558;13.188;2024-02-21T02:24:27;101424.59;;;8.50;100.00
829;BME280;396;52.558;13.188;2024-02-21T02:26:54;101416.72;;;8.44;100.00
829;BME280;396;52.558;13.188;2024-02-21T02:29:21;101417.25;;;8.41;100.00
829;BME280;396;52.558;13.188;2024-02-21T02:31:49;101409.66;;;8.32;100.00
829;BME280;396;52.558;13.188;2024-02-21T02:34:15;101409.34;;;8.24;100.00
829;BME280;396;52.558;13.188;2024-02-21T02:36:42;101405.78;;;8.13;100.00
829;BME280;396;52.558;13.188;2024-02-21T02:39:09;101399.88;;;8.11;100.00
829;BME280;396;52.558;13.188;2024-02-21T02:41:37;101400.16;;;8.15;100.00
829;BME280;396;52.558;13.188;2024-02-21T02:44:03;101391.78;;;8.11;100.00
829;BME280;396;52.558;13.188;2024-02-21T02:46:30;101397.16;;;8.11;100.00
829;BME280;396;52.558;13.188;2024-02-21T02:48:56;101382.31;;;8.08;100.00
829;BME280;396;52.558;13.188;2024-02-21T02:51:23;101385.28;;;8.07;100.00
829;BME280;396;52.558;13.188;2024-02-21T02:53:50;101388.22;;;8.05;100.00
829;BME280;396;52.558;13.188;2024-02-21T02:56:16;101382.00;;;8.00;100.00
829;BME280;396;52.558;13.188;2024-02-21T02:58:44;101376.06;;;7.98;100.00
829;BME280;396;52.558;13.188;2024-02-21T03:01:11;101374.69;;;7.95;100.00
829;BME280;396;52.558;13.188;2024-02-21T03:03:38;101368.78;;;7.93;100.00
829;BME280;396;52.558;13.188;2024-02-21T03:06:05;101365.78;;;7.95;100.00
829;BME280;396;52.558;13.188;2024-02-21T03:08:32;101363.38;;;7.93;100.00
829;BME280;396;52.558;13.188;2024-02-21T03:10:59;101360.66;;;7.88;100.00
829;BME280;396;52.558;13.188;2024-02-21T03:13:26;101362.53;;;7.88;100.00
829;BME280;396;52.558;13.188;2024-02-21T03:15:54;101357.41;;;7.86;100.00
829;BME280;396;52.558;13.188;2024-02-21T03:18:20;101354.44;;;7.88;100.00
829;BME280;396;52.558;13.188;2024-02-21T03:20:47;101347.97;;;7.89;100.00
829;BME280;396;52.558;13.188;2024-02-21T03:23:14;101352.53;;;7.83;100.00
829;BME280;396;52.558;13.188;2024-02-21T03:25:40;101346.31;;;7.82;100.00
829;BME280;396;52.558;13.188;2024-02-21T03:28:07;101354.69;;;7.81;100.00
829;BME280;396;52.558;13.188;2024-02-21T03:30:33;101349.28;;;7.81;100.00
829;BME280;396;52.558;13.188;2024-02-21T03:33:02;101337.94;;;7.79;100.00
829;BME280;396;52.558;13.188;2024-02-21T03:35:29;101336.59;;;7.76;100.00
829;BME280;396;52.558;13.188;2024-02-21T03:37:56;101334.72;;;7.77;100.00
829;BME280;396;52.558;13.188;2024-02-21T03:40:22;101323.13;;;7.76;100.00
829;BME280;396;52.558;13.188;2024-02-21T03:42:49;101323.94;;;7.77;100.00
829;BME280;396;52.558;13.188;2024-02-21T03:45:15;101318.25;;;7.73;100.00
829;BME280;396;52.558;13.188;2024-02-21T03:47:42;101323.91;;;7.72;100.00
829;BME280;396;52.558;13.188;2024-02-21T03:50:10;101320.41;;;7.71;100.00
829;BME280;396;52.558;13.188;2024-02-21T03:52:37;101322.03;;;7.72;100.00
829;BME280;396;52.558;13.188;2024-02-21T03:55:04;101320.41;;;7.76;100.00
829;BME280;396;52.558;13.188;2024-02-21T03:57:32;101320.16;;;7.78;100.00
829;BME280;396;52.558;13.188;2024-02-21T03:59:59;101316.09;;;7.75;100.00
829;BME280;396;52.558;13.188;2024-02-21T04:02:26;101310.16;;;7.78;100.00
829;BME280;396;52.558;13.188;2024-02-21T04:04:53;101306.94;;;7.76;100.00
829;BME280;396;52.558;13.188;2024-02-21T04:07:21;101297.22;;;7.75;100.00
829;BME280;396;52.558;13.188;2024-02-21T04:09:48;101293.97;;;7.73;100.00
829;BME280;396;52.558;13.188;2024-02-21T04:12:14;101295.59;;;7.74;100.00
829;BME280;396;52.558;13.188;2024-02-21T04:14:41;101291.56;;;7.77;100.00
829;BME280;396;52.558;13.188;2024-02-21T04:17:07;101285.91;;;7.78;100.00
829;BME280;396;52.558;13.188;2024-02-21T04:19:34;101286.44;;;7.75;100.00
829;BME280;396;52.558;13.188;2024-02-21T04:22:01;101268.66;;;7.79;100.00
829;BME280;396;52.558;13.188;2024-02-21T04:24:29;101260.81;;;7.83;100.00
829;BME280;396;52.558;13.188;2024-02-21T04:26:55;101264.88;;;7.80;100.00
829;BME280;396;52.558;13.188;2024-02-21T04:29:22;101252.50;;;7.84;100.00
829;BME280;396;52.558;13.188;2024-02-21T04:31:48;101241.69;;;7.84;100.00
829;BME280;396;52.558;13.188;2024-02-21T04:34:15;101241.16;;;7.88;100.00
829;BME280;396;52.558;13.188;2024-02-21T04:36:42;101230.13;;;7.89;100.00
829;BME280;396;52.558;13.188;2024-02-21T04:39:08;101235.50;;;7.94;100.00
829;BME280;396;52.558;13.188;2024-02-21T04:41:36;101229.84;;;7.91;100.00
829;BME280;396;52.558;13.188;2024-02-21T04:44:03;101228.22;;;7.90;100.00
829;BME280;396;52.558;13.188;2024-02-21T04:46:30;101220.41;;;7.88;100.00
829;BME280;396;52.558;13.188;2024-02-21T04:48:57;101228.75;;;7.92;100.00
829;BME280;396;52.558;13.188;2024-02-21T04:51:24;101219.84;;;7.91;100.00
829;BME280;396;52.558;13.188;2024-02-21T04:53:50;101219.03;;;7.91;100.00
829;BME280;396;52.558;13.188;2024-02-21T04:56:17;101219.06;;;7.96;100.00
829;BME280;396;52.558;13.188;2024-02-21T04:58:45;101229.31;;;7.94;100.00
829;BME280;396;52.558;13.188;2024-02-21T05:01:11;101231.44;;;7.92;100.00
829;BME280;396;52.558;13.188;2024-02-21T05:03:38;101223.34;;;7.92;100.00
829;BME280;396;52.558;13.188;2024-02-21T05:06:05;101219.59;;;7.93;100.00
829;BME280;396;52.558;13.188;2024-02-21T05:08:33;101217.44;;;7.95;100.00
829;BME280;396;52.558;13.188;2024-02-21T05:10:59;101215.25;;;7.92;100.00
829;BME280;396;52.558;13.188;2024-02-21T05:13:26;101208.81;;;7.93;100.00
829;BME280;396;52.558;13.188;2024-02-21T05:15:54;101216.34;;;7.96;100.00
829;BME280;396;52.558;13.188;2024-02-21T05:18:20;101212.84;;;7.95;100.00
829;BME280;396;52.558;13.188;2024-02-21T05:20:47;101214.75;;;7.95;100.00
829;BME280;396;52.558;13.188;2024-02-21T05:23:14;101217.44;;;7.95;100.00
829;BME280;396;52.558;13.188;2024-02-21T05:25:40;101209.34;;;7.95;100.00
829;BME280;396;52.558;13.188;2024-02-21T05:28:07;101213.13;;;7.94;100.00
829;BME280;396;52.558;13.188;2024-02-21T05:30:33;101223.34;;;7.97;100.00
829;BME280;396;52.558;13.188;2024-02-21T05:33:05;101217.16;;;7.96;100.00
829;BME280;396;52.558;13.188;2024-02-21T05:35:32;101215.53;;;7.95;100.00
829;BME280;396;52.558;13.188;2024-02-21T05:37:59;101208.53;;;7.94;100.00
829;BME280;396;52.558;13.188;2024-02-21T05:40:26;101204.22;;;7.98;100.00
829;BME280;396;52.558;13.188;2024-02-21T05:42:52;101212.59;;;8.02;100.00
829;BME280;396;52.558;13.188;2024-02-21T05:45:19;101201.81;;;8.02;100.00
829;BME280;396;52.558;13.188;2024-02-21T05:47:45;101205.84;;;7.99;100.00
829;BME280;396;52.558;13.188;2024-02-21T05:50:13;101200.72;;;8.03;100.00
829;BME280;396;52.558;13.188;2024-02-21T05:52:40;101195.34;;;8.03;100.00
829;BME280;396;52.558;13.188;2024-02-21T05:55:07;101196.41;;;8.02;100.00
829;BME280;396;52.558;13.188;2024-02-21T05:57:34;101189.94;;;7.98;100.00
829;BME280;396;52.558;13.188;2024-02-21T06:00:03;101202.06;;;8.00;100.00
829;BME280;396;52.558;13.188;2024-02-21T06:02:31;101189.94;;;8.03;100.00
829;BME280;396;52.558;13.188;2024-02-21T06:04:57;101186.97;;;8.04;100.00
829;BME280;396;52.558;13.188;2024-02-21T06:07:25;101182.94;;;8.02;100.00
829;BME280;396;52.558;13.188;2024-02-21T06:09:52;101180.22;;;8.02;100.00
829;BME280;396;52.558;13.188;2024-02-21T06:12:18;101179.94;;;8.08;100.00
829;BME280;396;52.558;13.188;2024-02-21T06:14:45;101181.56;;;8.09;100.00
829;BME280;396;52.558;13.188;2024-02-21T06:17:12;101183.19;;;8.11;100.00
829;BME280;396;52.558;13.188;2024-02-21T06:19:39;101169.97;;;8.09;100.00
829;BME280;396;52.558;13.188;2024-02-21T06:22:06;101176.44;;;8.08;100.00
829;BME280;396;52.558;13.188;2024-02-21T06:24:35;101173.22;;;8.11;100.00
829;BME280;396;52.558;13.188;2024-02-21T06:27:03;101180.75;;;8.14;100.00
829;BME280;396;52.558;13.188;2024-02-21T06:29:31;101180.50;;;8.16;100.00
829;BME280;396;52.558;13.188;2024-02-21T06:31:57;101179.94;;;8.14;100.00
829;BME280;396;52.558;13.188;2024-02-21T06:34:24;101172.94;;;8.13;100.00
829;BME280;396;52.558;13.188;2024-02-21T06:36:51;101179.13;;;8.18;100.00
829;BME280;396;52.558;13.188;2024-02-21T06:39:17;101191.00;;;8.17;100.00
829;BME280;396;52.558;13.188;2024-02-21T06:41:45;101192.63;;;8.23;100.00
829;BME280;396;52.558;13.188;2024-02-21T06:44:13;101198.31;;;8.22;100.00
829;BME280;396;52.558;13.188;2024-02-21T06:46:39;101189.69;;;8.20;100.00
829;BME280;396;52.558;13.188;2024-02-21T06:49:06;101192.66;;;8.28;100.00
829;BME280;396;52.558;13.188;2024-02-21T06:51:33;101193.16;;;8.30;100.00
829;BME280;396;52.558;13.188;2024-02-21T06:54:00;101191.56;;;8.34;100.00
829;BME280;396;52.558;13.188;2024-02-21T06:56:27;101191.56;;;8.34;100.00
829;BME280;396;52.558;13.188;2024-02-21T06:58:55;101187.75;;;8.35;100.00
829;BME280;396;52.558;13.188;2024-02-21T07:01:22;101189.41;;;8.37;100.00
829;BME280;396;52.558;13.188;2024-02-21T07:03:48;101185.06;;;8.30;100.00
829;BME280;396;52.558;13.188;2024-02-21T07:06:15;101188.34;;;8.32;100.00
829;BME280;396;52.558;13.188;2024-02-21T07:08:42;101188.34;;;8.38;100.00
829;BME280;396;52.558;13.188;2024-02-21T07:11:08;101179.69;;;8.41;100.00
829;BME280;396;52.558;13.188;2024-02-21T07:13:35;101184.56;;;8.44;100.00
829;BME280;396;52.558;13.188;2024-02-21T07:16:04;101181.06;;;8.43;100.00
829;BME280;396;52.558;13.188;2024-02-21T07:18:31;101187.81;;;8.46;100.00
829;BME280;396;52.558;13.188;2024-02-21T07:20:57;101177.00;;;8.46;100.00
829;BME280;396;52.558;13.188;2024-02-21T07:23:24;101172.66;;;8.50;100.00
829;BME280;396;52.558;13.188;2024-02-21T07:25:50;101179.41;;;8.57;100.00
829;BME280;396;52.558;13.188;2024-02-21T07:28:17;101181.00;;;8.58;100.00
829;BME280;396;52.558;13.188;2024-02-21T07:30:44;101180.47;;;8.62;100.00
829;BME280;396;52.558;13.188;2024-02-21T07:33:12;101188.28;;;8.63;100.00
829;BME280;396;52.558;13.188;2024-02-21T07:35:38;101191.28;;;8.62;100.00
829;BME280;396;52.558;13.188;2024-02-21T07:38:06;101191.84;;;8.64;100.00
829;BME280;396;52.558;13.188;2024-02-21T07:40:33;101195.31;;;8.69;100.00
829;BME280;396;52.558;13.188;2024-02-21T07:43:00;101188.31;;;8.68;100.00
829;BME280;396;52.558;13.188;2024-02-21T07:45:26;101178.31;;;8.69;100.00
829;BME280;396;52.558;13.188;2024-02-21T07:47:53;101175.03;;;8.72;100.00
829;BME280;396;52.558;13.188;2024-02-21T07:50:21;101188.03;;;8.65;100.00
829;BME280;396;52.558;13.188;2024-02-21T07:52:48;101189.38;;;8.67;100.00
829;BME280;396;52.558;13.188;2024-02-21T07:55:14;101199.66;;;8.65;100.00
829;BME280;396;52.558;13.188;2024-02-21T07:57:41;101186.41;;;8.69;100.00
829;BME280;396;52.558;13.188;2024-02-21T08:00:08;101181.28;;;8.72;100.00
829;BME280;396;52.558;13.188;2024-02-21T08:02:40;101186.69;;;8.72;100.00
829;BME280;396;52.558;13.188;2024-02-21T08:05:08;101189.91;;;8.74;100.00
829;BME280;396;52.558;13.188;2024-02-21T08:07:36;101176.94;;;8.76;100.00
829;BME280;396;52.558;13.188;2024-02-21T08:10:03;101186.13;;;8.75;100.00
829;BME280;396;52.558;13.188;2024-02-21T08:12:30;101178.00;;;8.80;100.00
829;BME280;396;52.558;13.188;2024-02-21T08:14:58;101182.91;;;8.73;100.00
829;BME280;396;52.558;13.188;2024-02-21T08:17:24;101175.88;;;8.77;100.00
829;BME280;396;52.558;13.188;2024-02-21T08:19:51;101182.88;;;8.78;100.00
829;BME280;396;52.558;13.188;2024-02-21T08:22:17;101174.22;;;8.81;100.00
829;BME280;396;52.558;13.188;2024-02-21T08:24:45;101173.13;;;8.88;100.00
829;BME280;396;52.558;13.188;2024-02-21T08:27:12;101178.53;;;8.88;100.00
829;BME280;396;52.558;13.188;2024-02-21T08:29:39;101168.00;;;8.91;100.00
829;BME280;396;52.558;13.188;2024-02-21T08:32:06;101174.16;;;9.02;100.00
829;BME280;396;52.558;13.188;2024-02-21T08:34:32;101178.69;;;9.12;100.00
829;BME280;396;52.558;13.188;2024-02-21T08:36:59;101178.94;;;9.20;100.00
829;BME280;396;52.558;13.188;2024-02-21T08:39:26;101175.16;;;9.26;100.00
829;BME280;396;52.558;13.188;2024-02-21T08:41:55;101173.47;;;9.35;100.00
829;BME280;396;52.558;13.188;2024-02-21T08:44:22;101173.97;;;9.43;100.00
829;BME280;396;52.558;13.188;2024-02-21T08:46:49;101173.41;;;9.46;100.00
829;BME280;396;52.558;13.188;2024-02-21T08:49:16;101174.81;;;9.43;100.00
829;BME280;396;52.558;13.188;2024-02-21T08:51:42;101176.41;;;9.44;100.00
829;BME280;396;52.558;13.188;2024-02-21T08:54:09;101176.13;;;9.46;100.00
829;BME280;396;52.558;13.188;2024-02-21T08:56:36;101182.06;;;9.48;100.00
829;BME280;396;52.558;13.188;2024-02-21T08:59:04;101177.22;;;9.45;100.00
829;BME280;396;52.558;13.188;2024-02-21T09:01:30;101179.38;;;9.43;100.00
829;BME280;396;52.558;13.188;2024-02-21T09:03:58;101167.97;;;9.51;100.00
829;BME280;396;52.558;13.188;2024-02-21T09:06:24;101180.66;;;9.55;100.00
829;BME280;396;52.558;13.188;2024-02-21T09:08:53;101185.00;;;9.56;100.00
829;BME280;396;52.558;13.188;2024-02-21T09:11:19;101182.81;;;9.58;100.00
829;BME280;396;52.558;13.188;2024-02-21T09:13:46;101179.28;;;9.63;100.00
829;BME280;396;52.558;13.188;2024-02-21T09:16:14;101169.81;;;9.66;100.00
829;BME280;396;52.558;13.188;2024-02-21T09:18:40;101171.91;;;9.69;100.00
829;BME280;396;52.558;13.188;2024-02-21T09:21:07;101170.09;;;9.59;100.00
829;BME280;396;52.558;13.188;2024-02-21T09:23:34;101158.69;;;9.67;99.54
829;BME280;396;52.558;13.188;2024-02-21T09:26:00;101162.75;;;9.70;100.00
829;BME280;396;52.558;13.188;2024-02-21T09:28:29;101165.88;;;9.82;99.60
829;BME280;396;52.558;13.188;2024-02-21T09:30:56;101162.91;;;9.83;99.70
829;BME280;396;52.558;13.188;2024-02-21T09:33:24;101161.22;;;9.93;99.38
829;BME280;396;52.558;13.188;2024-02-21T09:35:50;101156.88;;;9.97;100.00
829;BME280;396;52.558;13.188;2024-02-21T09:38:18;101157.56;;;10.07;98.44
829;BME280;396;52.558;13.188;2024-02-21T09:40:45;101157.28;;;10.09;98.36
829;BME280;396;52.558;13.188;2024-02-21T09:43:17;101151.91;;;10.04;98.16
829;BME280;396;52.558;13.188;2024-02-21T09:45:46;101149.47;;;10.07;96.85
829;BME280;396;52.558;13.188;2024-02-21T09:48:29;101155.97;;;10.06;97.36
829;BME280;396;52.558;13.188;2024-02-21T09:50:58;101152.91;;;10.18;96.18
829;BME280;396;52.558;13.188;2024-02-21T09:53:26;101146.44;;;10.14;96.83
829;BME280;396;52.558;13.188;2024-02-21T09:55:54;101156.16;;;10.15;96.69
829;BME280;396;52.558;13.188;2024-02-21T09:58:22;101156.44;;;10.14;95.94
829;BME280;396;52.558;13.188;2024-02-21T10:00:51;101155.88;;;10.17;96.19
829;BME280;396;52.558;13.188;2024-02-21T10:03:17;101162.69;;;10.14;95.72
829;BME280;396;52.558;13.188;2024-02-21T10:05:48;101158.88;;;10.15;95.68
829;BME280;396;52.558;13.188;2024-02-21T10:08:16;101157.78;;;10.16;95.78
829;BME280;396;52.558;13.188;2024-02-21T10:10:43;101152.59;;;10.20;96.02
829;BME280;396;52.558;13.188;2024-02-21T10:13:10;101157.44;;;10.28;95.89
829;BME280;396;52.558;13.188;2024-02-21T10:15:37;101146.56;;;10.33;94.99
829;BME280;396;52.558;13.188;2024-02-21T10:18:04;101149.16;;;10.43;93.99
829;BME280;396;52.558;13.188;2024-02-21T10:20:32;101151.00;;;10.48;94.72
829;BME280;396;52.558;13.188;2024-02-21T10:23:04;101151.25;;;10.51;94.23
829;BME280;396;52.558;13.188;2024-02-21T10:25:33;101153.59;;;10.63;93.25
829;BME280;396;52.558;13.188;2024-02-21T10:28:01;101159.00;;;10.63;93.90
829;BME280;396;52.558;13.188;2024-02-21T10:30:28;101162.78;;;10.62;93.77
829;BME280;396;52.558;13.188;2024-02-21T10:32:54;101168.84;;;10.54;94.55
829;BME280;396;52.558;13.188;2024-02-21T10:35:27;101168.19;;;10.62;92.86
829;BME280;396;52.558;13.188;2024-02-21T10:37:55;101161.78;;;10.53;93.95
829;BME280;396;52.558;13.188;2024-02-21T10:40:26;101161.28;;;10.51;94.79
829;BME280;396;52.558;13.188;2024-02-21T10:42:56;101154.19;;;10.55;94.72
829;BME280;396;52.558;13.188;2024-02-21T10:45:29;101160.72;;;10.54;95.57
829;BME280;396;52.558;13.188;2024-02-21T10:48:04;101163.25;;;10.45;97.59
829;BME280;396;52.558;13.188;2024-02-21T10:50:39;101151.22;;;10.27;98.75
829;BME280;396;52.558;13.188;2024-02-21T10:53:20;101146.38;;;10.24;99.60
829;BME280;396;52.558;13.188;2024-02-21T10:55:58;101145.28;;;10.25;100.00
829;BME280;396;52.558;13.188;2024-02-21T10:58:28;101152.28;;;10.31;99.60
829;BME280;396;52.558;13.188;2024-02-21T11:00:55;101135.97;;;10.37;99.29
829;BME280;396;52.558;13.188;2024-02-21T11:03:22;101122.88;;;10.44;98.90
829;BME280;396;52.558;13.188;2024-02-21T11:05:49;101120.03;;;10.59;98.73
829;BME280;396;52.558;13.188;2024-02-21T11:08:17;101107.34;;;10.78;98.11
829;BME280;396;52.558;13.188;2024-02-21T11:10:46;101107.38;;;10.97;95.34
829;BME280;396;52.558;13.188;2024-02-21T11:13:14;101103.13;;;11.10;95.90
829;BME280;396;52.558;13.188;2024-02-21T11:15:40;101094.22;;;11.28;94.73
829;BME280;396;52.558;13.188;2024-02-21T11:18:07;101083.72;;;11.41;93.19
829;BME280;396;52.558;13.188;2024-02-21T11:20:34;101090.03;;;11.55;92.64
829;BME280;396;52.558;13.188;2024-02-21T11:23:01;101090.28;;;11.72;91.46
829;BME280;396;52.558;13.188;2024-02-21T11:25:28;101080.19;;;11.78;89.02
829;BME280;396;52.558;13.188;2024-02-21T11:28:00;101074.44;;;11.79;90.45
829;BME280;396;52.558;13.188;2024-02-21T11:30:30;101072.19;;;11.86;87.27
829;BME280;396;52.558;13.188;2024-02-21T11:33:01;101069.97;;;11.89;87.99
829;BME280;396;52.558;13.188;2024-02-21T11:35:31;101073.44;;;12.08;86.55
829;BME280;396;52.558;13.188;2024-02-21T11:38:08;101070.66;;;12.27;86.63
829;BME280;396;52.558;13.188;2024-02-21T11:40:38;101063.09;;;12.65;84.76
829;BME280;396;52.558;13.188;2024-02-21T11:43:04;101058.56;;;12.74;82.73
829;BME280;396;52.558;13.188;2024-02-21T11:45:32;101055.81;;;12.88;81.79
829;BME280;396;52.558;13.188;2024-02-21T11:47:59;101053.94;;;12.75;80.73
829;BME280;396;52.558;13.188;2024-02-21T11:50:29;101037.81;;;12.78;81.59
829;BME280;396;52.558;13.188;2024-02-21T11:52:55;101037.09;;;12.86;81.52
829;BME280;396;52.558;13.188;2024-02-21T11:55:22;101044.56;;;12.81;79.83
829;BME280;396;52.558;13.188;2024-02-21T11:57:49;101037.63;;;12.61;81.32
829;BME280;396;52.558;13.188;2024-02-21T12:00:17;101034.22;;;12.55;82.48
829;BME280;396;52.558;13.188;2024-02-21T12:02:47;101030.81;;;12.50;83.20
829;BME280;396;52.558;13.188;2024-02-21T12:05:14;101021.66;;;12.46;83.16
829;BME280;396;52.558;13.188;2024-02-21T12:07:41;101023.84;;;12.44;82.51
829;BME280;396;52.558;13.188;2024-02-21T12:10:08;101012.00;;;12.53;82.39
829;BME280;396;52.558;13.188;2024-02-21T12:12:36;101015.50;;;12.68;82.10
829;BME280;396;52.558;13.188;2024-02-21T12:15:03;101016.06;;;12.78;82.89
829;BME280;396;52.558;13.188;2024-02-21T12:17:30;101005.16;;;12.92;81.63
829;BME280;396;52.558;13.188;2024-02-21T12:19:58;101004.16;;;13.02;80.80
829;BME280;396;52.558;13.188;2024-02-21T12:22:25;101000.25;;;13.30;79.88
829;BME280;396;52.558;13.188;2024-02-21T12:24:52;100998.44;;;13.26;78.62
829;BME280;396;52.558;13.188;2024-02-21T12:27:19;100996.44;;;13.18;78.69
829;BME280;396;52.558;13.188;2024-02-21T12:29:45;100983.31;;;13.33;78.47
829;BME280;396;52.558;13.188;2024-02-21T12:32:12;100979.34;;;13.71;78.21
829;BME280;396;52.558;13.188;2024-02-21T12:34:38;100982.34;;;13.92;75.58
829;BME280;396;52.558;13.188;2024-02-21T12:37:06;100977.63;;;13.75;75.94
829;BME280;396;52.558;13.188;2024-02-21T12:39:33;100968.88;;;13.55;75.68
829;BME280;396;52.558;13.188;2024-02-21T12:41:59;100962.06;;;14.06;75.87
829;BME280;396;52.558;13.188;2024-02-21T12:44:26;100963.03;;;14.59;72.64
829;BME280;396;52.558;13.188;2024-02-21T12:46:53;100964.72;;;14.37;71.64
829;BME280;396;52.558;13.188;2024-02-21T12:49:20;100958.47;;;13.88;73.93
829;BME280;396;52.558;13.188;2024-02-21T12:51:46;100962.38;;;13.65;74.76
829;BME280;396;52.558;13.188;2024-02-21T12:54:14;100956.94;;;13.20;76.33
829;BME280;396;52.558;13.188;2024-02-21T12:56:41;100954.03;;;13.17;77.50
829;BME280;396;52.558;13.188;2024-02-21T12:59:08;100947.72;;;13.07;77.84
829;BME280;396;52.558;13.188;2024-02-21T13:01:35;100951.22;;;12.85;77.79
829;BME280;396;52.558;13.188;2024-02-21T13:04:02;100943.59;;;12.74;80.07
829;BME280;396;52.558;13.188;2024-02-21T13:06:29;100938.56;;;12.81;80.76
829;BME280;396;52.558;13.188;2024-02-21T13:08:56;100938.75;;;12.84;80.19
829;BME280;396;52.558;13.188;2024-02-21T13:11:24;100935.31;;;12.79;79.85
829;BME280;396;52.558;13.188;2024-02-21T13:13:53;100928.88;;;12.75;80.19
829;BME280;396;52.558;13.188;2024-02-21T13:16:20;100920.25;;;12.73;79.30
829;BME280;396;52.558;13.188;2024-02-21T13:18:47;100915.19;;;12.57;80.42
829;BME280;396;52.558;13.188;2024-02-21T13:21:14;100911.03;;;12.60;80.94
829;BME280;396;52.558;13.188;2024-02-21T13:23:41;100914.44;;;12.66;80.03
829;BME280;396;52.558;13.188;2024-02-21T13:26:09;100910.63;;;12.67;80.38
829;BME280;396;52.558;13.188;2024-02-21T13:28:37;100912.41;;;12.71;80.54